CYGT

Igloolik Airport

Igloolik, Canada
METAR CYGT 152000Z 15013KT 10SM -SN SCT025 OVC061 M12/M13 A2947 RMK SC3SC5 -11.3/-11.3/0.2/30/SNW CVR MUCH LOOSE/LAST STFD OBS/NEXT 161700Z SLP988
Observed Flight Rules
Dec-15 @ 20:00 UTC (5 hours ago) Visual Flight Rules
Wind Visibility Clouds Conditions
150° at 13 knots 10 miles
  • Scattered at 2,500' AGL
  • Overcast at 6,100' AGL
  • Light Snow
Temperatures Readings
Current -12°C / 10°F
Dewpoint -13°C / 9°F
Humidity 92%
Altimeter 29.47" Hg
Pressure 998.8 hPa
Elevation 51
METAR CYGT 152000Z 15013KT 10SM -SN SCT025 OVC061 M12/M13 A2947 RMK SC3SC5 -11.3/-11.3/0.2/30/SNW CVR MUCH LOOSE/LAST STFD OBS/NEXT 161700Z SLP988
Observed Flight Rules
Dec-15 @ 20:00 UTC
(5 hours ago)
VFR
Wind Visibility
150° at 13 knots 10 miles
Clouds
  • Scattered at 2,500' AGL
  • Overcast at 6,100' AGL
Conditions
  • Light Snow
Temperature Dewpoint
-12°C / 10°F -13°C / 9°F
Humidity Altimeter Pressure
92% 29.47" Hg 998.8 hPa